Airfield :
LOGIN :

Register | Disclaimer

   EN    FR    IT 

 










Legend :    VFR   Marginal VFR   IFR   Intensive IFR   Very Intensive IFR
Visi :
Ceiling :
>= 8 km
>= 3000ft
5 to 8 km
1000 to 3000 ft
1500m to 5 km
500 to 1000 ft
800 to 1500m
200 to 500 ft
< 800m
< 200 ft
Symbols :   Thunderstorms  Fog  Heavy snow  Heavy precipitations  Wind > 20 kt
SIGMETs :     Misc.  Thunderstorms  Icing  Turbulence  Mountain Waves  Volcanic Ashes






- Airport Elevation : 1213 ft
- IATA code : SCQ


LEST - Santiago de Compostela

CURRENT METAR :
  • 080230Z 02005KT 330V120 9999 SCT005 16/15 Q1021 TEMPO BKN005

EXPIRED METARs :
  • 080200Z 02006KT 330V080 9999 SCT005 16/15 Q1021 TEMPO BKN005
  • 080130Z 02007KT 340V050 9999 SCT005 16/15 Q1021 TEMPO BKN005
  • 080100Z 02005KT 330V060 9999 SCT005 17/15 Q1021 TEMPO BKN005
  • 080030Z 03005KT 320V080 9999 FEW005 16/15 Q1021 TEMPO BKN005
  • 080000Z 02008KT 340V050 9999 FEW005 17/15 Q1021 TEMPO BKN005

TAF TAF LEST
Valid from the 08 at 00:00 until the 09 at 00:00 UTC


072300Z 0800/0824 01009KT 9999 FEW010 TX29/0814Z TN15/0804Z
TEMPO 0800/0808 BKN006
PROB30
TEMPO 0800/0807 3000 BR BKN003



MET'MAP, your aeronautical weather chart ! - Copyright ORBIFLY December 2007 - Disclaimer

ORBIFLY MET'MAP TEAM :

Programming & Development : Alexandra Zaïnal
Concept & original design : Baudouin d'Aumeries
Assistance for programming : Marc-Olivier Méhu
Technical & hardware support : Manuel Goepfert

Contact : metmap@orbifly.com




SOURCES & CREDITS :

   NOAA